MFV Chloe Olivia — MYTM8 — position and weather

sailwx.info

Track history (hours):
 
Tides and Currents Weather Stations Pressure Air Temp Water Temp Dewpoint Dewpoint Depression Visibility Wind Speed Wind Dir Waves Ship Positions

MFV Chloe Olivia

Last reported at 2017-Dec-18 03:35 UTC. Time now 2017-Dec-18 04:59 UTC.
Position N 49°46' W 004°25'.

Length 20 m; draft 3 m.

Type: Fishing. MMSI: 232004700.

Date/timePositionNaut miles runAvg speedWind from/ knotsBaromVisibWave heightAir tempDewpointWater temp
2017-Dec-18 03:35N 49°46' W 004°25'3 4.2
2017-Dec-18 02:49N 49°45' W 004°30'2 4.3
2017-Dec-18 02:20N 49°45' W 004°33'2 4.1
2017-Dec-18 01:57N 49°45' W 004°35'3 1.7
2017-Dec-18 00:23N 49°43' W 004°39'48 1.7
2017-Dec-16 20:56N 49°55' W 003°27'1 0.9
2017-Dec-16 19:44N 49°54' W 003°27'6 0.6
2017-Dec-16 09:45N 49°56' W 003°36'1 2.3
2017-Dec-16 09:27N 49°57' W 003°35'10 0.5
2017-Dec-15 11:49N 50°07' W 003°35'310.3
2017-Dec-15 11:30N 50°10' W 003°33'610.5
2017-Dec-15 10:57N 50°15' W 003°31'510.3
2017-Dec-15 10:30N 50°20' W 003°29'5 9.0
2017-Dec-15 10:00N 50°24' W 003°29'1 1.7
2017-Dec-15 09:30N 50°24' W 003°31'0 0.0
2017-Dec-15 09:00N 50°24' W 003°31'0 0.0
2017-Dec-15 08:31N 50°24' W 003°31'0 0.0
2017-Dec-15 08:00N 50°24' W 003°31'0 0.0
2017-Dec-15 07:30N 50°24' W 003°31'0 0.0
2017-Dec-15 07:00N 50°24' W 003°31'0 0.0
2017-Dec-15 06:30N 50°24' W 003°31'0 0.0
2017-Dec-15 06:01N 50°24' W 003°31'0 0.0
2017-Dec-15 05:30N 50°24' W 003°31'0 0.0
2017-Dec-15 05:00N 50°24' W 003°31'0 0.0
2017-Dec-15 04:31N 50°24' W 003°31'0 0.0
2017-Dec-15 04:00N 50°24' W 003°31'0 0.0
2017-Dec-15 02:30N 50°24' W 003°31'0 0.0
2017-Dec-15 01:00N 50°24' W 003°31'0 0.0
2017-Dec-15 00:30N 50°24' W 003°31'0 0.0
2017-Dec-14 18:30N 50°24' W 003°31'0 0.0
2017-Dec-14 18:00N 50°24' W 003°31'0 0.0
2017-Dec-14 17:30N 50°24' W 003°31'0 0.0
2017-Dec-14 17:00N 50°24' W 003°31'0 0.0
2017-Dec-14 16:31N 50°24' W 003°31'0 0.0
2017-Dec-14 16:00N 50°24' W 003°31'0 0.0
2017-Dec-14 15:00N 50°24' W 003°31'0 0.0
2017-Dec-14 14:30N 50°24' W 003°31'0 0.0
2017-Dec-14 14:00N 50°24' W 003°31'0 0.0
2017-Dec-14 13:30N 50°24' W 003°31'0 0.0
2017-Dec-14 13:00N 50°24' W 003°31'0 0.0
2017-Dec-14 12:31N 50°24' W 003°31'0 0.1
2017-Dec-14 12:00N 50°24' W 003°31'0 0.0
2017-Dec-14 11:30N 50°24' W 003°31'0 0.0
2017-Dec-14 11:00N 50°24' W 003°31'0 0.0
2017-Dec-14 10:30N 50°24' W 003°31'0 0.0
2017-Dec-14 10:00N 50°24' W 003°31'1 1.4
2017-Dec-14 09:30N 50°25' W 003°30'2 4.4
2017-Dec-14 09:00N 50°25' W 003°27'3 6.7
2017-Dec-14 08:30N 50°25' W 003°22'3 6.0
2017-Dec-14 08:00N 50°26' W 003°17'3 5.3
2017-Dec-14 07:30N 50°26' W 003°13'2 4.9
2017-Dec-14 07:00N 50°27' W 003°09'1 1.8
2017-Dec-14 06:30N 50°26' W 003°10'2 3.4
2017-Dec-14 06:00N 50°28' W 003°08'2 3.1
2017-Dec-14 05:28N 50°28' W 003°06'2 3.8
2017-Dec-14 05:00N 50°27' W 003°08'2 4.0
2017-Dec-14 04:30N 50°25' W 003°09'1 2.1
2017-Dec-14 04:00N 50°25' W 003°10'0 0.9
2017-Dec-14 03:30N 50°24' W 003°10'2 4.0
2017-Dec-14 03:00N 50°22' W 003°10'2 4.2
2017-Dec-14 02:30N 50°20' W 003°10'2 4.3
2017-Dec-14 02:00N 50°18' W 003°12'2 3.6
2017-Dec-14 01:30N 50°17' W 003°14'1 1.3
2017-Dec-14 01:00N 50°16' W 003°14'2 3.9
2017-Dec-14 00:30N 50°18' W 003°13'2 3.9
2017-Dec-14 00:00N 50°16' W 003°14'2 3.1
2017-Dec-13 23:30N 50°15' W 003°15'0 1.0
2017-Dec-13 23:00N 50°15' W 003°14'2 4.4
2017-Dec-13 22:30N 50°17' W 003°12'2 4.2
2017-Dec-13 22:00N 50°18' W 003°09'1 1.3
2017-Dec-13 21:31N 50°18' W 003°08'2 3.7
2017-Dec-13 21:00N 50°18' W 003°05'3 4.4
2017-Dec-13 20:23N 50°17' W 003°01'1 3.9
2017-Dec-13 20:00N 50°16' W 002°59'1 1.9
2017-Dec-13 19:30N 50°16' W 002°58'2 3.3
2017-Dec-13 19:00N 50°14' W 002°57'1 2.4
2017-Dec-13 18:30N 50°13' W 002°56'2 3.9
2017-Dec-13 18:00N 50°15' W 002°57'1 2.4
2017-Dec-13 17:27N 50°15' W 002°59'2 3.4
2017-Dec-13 16:44N 50°13' W 003°01'1 4.2
2017-Dec-13 16:30N 50°13' W 003°02'2 4.2
2017-Dec-13 16:00N 50°11' W 003°04'2 3.9
2017-Dec-13 15:30N 50°09' W 003°06'2 4.0
2017-Dec-13 15:01N 50°08' W 003°07'2 4.1
2017-Dec-13 14:30N 50°06' W 003°09'2 4.2
2017-Dec-13 14:00N 50°04' W 003°11'3 3.8
2017-Dec-13 13:16N 50°03' W 003°15'1 4.1
2017-Dec-13 13:00N 50°02' W 003°16'2 3.5
2017-Dec-13 12:26N 50°00' W 003°16'2 4.0
2017-Dec-13 12:00N 49°59' W 003°14'2 2.2
2017-Dec-13 11:00N 49°60' W 003°11'3 4.3
2017-Dec-13 10:12N 50°02' W 003°07'1 4.5
2017-Dec-13 10:00N 50°03' W 003°06'1 2.2
2017-Dec-13 09:30N 50°04' W 003°06'2 3.3
2017-Dec-13 08:57N 50°06' W 003°05'2 4.4
2017-Dec-13 08:30N 50°08' W 003°05'2 4.1
2017-Dec-13 08:00N 50°10' W 003°03'1 1.6
2017-Dec-13 07:30N 50°10' W 003°02'2 4.0
2017-Dec-13 07:00N 50°09' W 003°05'2 3.6
2017-Dec-13 06:30N 50°08' W 003°06'2 4.0
2017-Dec-13 06:00N 50°06' W 003°07'2 3.6
2017-Dec-13 05:30N 50°05' W 003°09'2 4.3
2017-Dec-13 05:00N 50°03' W 003°12'3 3.7
2017-Dec-13 04:03N 49°60' W 003°13'0 4.4
2017-Dec-13 04:00N 49°60' W 003°13'3 3.7
2017-Dec-13 03:04N 49°57' W 003°16'0 4.7
2017-Dec-13 02:59N 49°57' W 003°17'3 3.6
2017-Dec-13 02:11N 49°54' W 003°18'1 4.3
2017-Dec-13 01:57N 49°54' W 003°19'2 3.7
2017-Dec-13 01:29N 49°54' W 003°22'2 3.0
2017-Dec-13 00:58N 49°56' W 003°22'2 4.0
2017-Dec-13 00:26N 49°58' W 003°20'2 3.9
2017-Dec-13 00:00N 49°59' W 003°19'1 2.2
2017-Dec-12 23:30N 49°60' W 003°18'2 3.7
2017-Dec-12 22:54N 50°02' W 003°17'1 3.5
2017-Dec-12 22:30N 50°02' W 003°15'2 4.4
2017-Dec-12 22:00N 50°03' W 003°12'1 1.6
2017-Dec-12 21:30N 50°03' W 003°11'2 3.1
2017-Dec-12 21:01N 50°04' W 003°08'2 4.4
2017-Dec-12 20:31N 50°06' W 003°06'2 4.2
2017-Dec-12 20:00N 50°07' W 003°04'1 2.3
2017-Dec-12 19:30N 50°08' W 003°03'2 3.3
2017-Dec-12 19:01N 50°09' W 003°01'2 3.7
2017-Dec-12 18:30N 50°09' W 002°58'2 3.4
2017-Dec-12 18:01N 50°10' W 002°56'1 1.6
2017-Dec-12 17:30N 50°11' W 002°55'1 1.8
2017-Dec-12 16:59N 50°12' W 002°54'2 4.3
2017-Dec-12 16:29N 50°10' W 002°57'2 4.5
2017-Dec-12 16:00N 50°09' W 002°60'2 4.1
2017-Dec-12 15:28N 50°08' W 003°03'2 4.4
2017-Dec-12 15:00N 50°07' W 003°05'2 4.5
2017-Dec-12 14:31N 50°06' W 003°08'5 4.2
2017-Dec-12 13:25N 50°02' W 003°12'2 4.6
2017-Dec-12 12:59N 50°00' W 003°14'4 4.2
2017-Dec-12 12:08N 49°57' W 003°17'1 3.9
2017-Dec-12 12:00N 49°57' W 003°17'1 1.2
2017-Dec-12 11:30N 49°57' W 003°18'3 4.0
2017-Dec-12 10:46N 49°60' W 003°16'1 4.0
2017-Dec-12 10:30N 50°00' W 003°15'2 4.3
2017-Dec-12 09:56N 50°03' W 003°13'2 4.3
2017-Dec-12 09:29N 50°04' W 003°11'2 3.7
2017-Dec-12 09:00N 50°06' W 003°10'2 4.2
2017-Dec-12 08:30N 50°07' W 003°07'2 4.3
2017-Dec-12 07:58N 50°08' W 003°04'2 4.4
2017-Dec-12 07:30N 50°08' W 003°01'2 3.8
2017-Dec-12 06:56N 50°09' W 002°58'1 2.1
2017-Dec-12 06:30N 50°10' W 002°58'2 3.6
2017-Dec-12 05:56N 50°09' W 003°01'2 4.0
2017-Dec-12 05:30N 50°08' W 003°03'2 3.4
2017-Dec-12 05:00N 50°07' W 003°05'2 4.1
2017-Dec-12 04:31N 50°06' W 003°08'2 4.3
2017-Dec-12 04:00N 50°05' W 003°11'2 4.3
2017-Dec-12 03:30N 50°04' W 003°13'2 3.7
2017-Dec-12 03:00N 50°02' W 003°15'3 4.0
2017-Dec-12 02:14N 49°59' W 003°17'1 4.2
2017-Dec-12 01:59N 49°58' W 003°18'2 4.0
2017-Dec-12 01:30N 49°57' W 003°19'2 4.1
2017-Dec-12 00:55N 49°54' W 003°21'1 2.8
2017-Dec-12 00:26N 49°53' W 003°22'1 1.4
2017-Dec-11 23:26N 49°55' W 003°23'2 4.0
2017-Dec-11 22:59N 49°56' W 003°22'4 3.4
2017-Dec-11 21:56N 50°00' W 003°22'2 4.2
2017-Dec-11 21:28N 50°02' W 003°21'2 4.3
2017-Dec-11 20:58N 50°04' W 003°20'2 4.4
2017-Dec-11 20:28N 50°06' W 003°19'1 3.1
2017-Dec-11 20:00N 50°07' W 003°19'5 9.0
2017-Dec-11 19:30N 50°12' W 003°21'5 9.9
2017-Dec-11 19:00N 50°16' W 003°24'5 9.9
2017-Dec-11 18:31N 50°21' W 003°26'4 8.4
2017-Dec-11 18:00N 50°24' W 003°30'1 1.2
2017-Dec-11 17:30N 50°24' W 003°31'0 0.0
2017-Dec-11 17:00N 50°24' W 003°31'0 0.0
2017-Dec-11 16:30N 50°24' W 003°31'0 0.0
2017-Dec-11 16:00N 50°24' W 003°31'0 0.0
2017-Dec-11 15:30N 50°24' W 003°31'0 0.0
2017-Dec-11 15:00N 50°24' W 003°31'0 0.0
2017-Dec-11 14:30N 50°24' W 003°31'0 0.0
2017-Dec-11 14:00N 50°24' W 003°31'0 0.0
2017-Dec-11 13:30N 50°24' W 003°31'0 0.0
2017-Dec-11 13:01N 50°24' W 003°31'0 0.0
2017-Dec-11 12:30N 50°24' W 003°31'0 0.0
2017-Dec-11 12:00N 50°24' W 003°31'0 0.0
2017-Dec-11 11:30N 50°24' W 003°31'0 0.0
2017-Dec-11 11:00N 50°24' W 003°31'0 0.0
2017-Dec-11 10:30N 50°24' W 003°31'0 0.0
2017-Dec-11 10:00N 50°24' W 003°31'0 0.0
2017-Dec-11 09:31N 50°24' W 003°31'0 0.0
2017-Dec-11 09:00N 50°24' W 003°31'0 0.0
2017-Dec-11 08:30N 50°24' W 003°31'0 0.0
2017-Dec-11 08:00N 50°24' W 003°31'0 0.0
2017-Dec-11 07:30N 50°24' W 003°31'0 0.0
2017-Dec-11 07:00N 50°24' W 003°31'0 0.0
2017-Dec-11 06:30N 50°24' W 003°31'0 0.0
2017-Dec-11 06:00N 50°24' W 003°31'0 0.0
2017-Dec-11 05:30N 50°24' W 003°31'0 0.0
2017-Dec-11 05:00N 50°24' W 003°31'0 0.0
2017-Dec-11 04:30N 50°24' W 003°31'0 0.0
2017-Dec-11 04:00N 50°24' W 003°31'0 0.0
2017-Dec-11 03:30N 50°24' W 003°31'0 0.0
2017-Dec-11 03:00N 50°24' W 003°31'0 0.0
2017-Dec-11 02:30N 50°24' W 003°31'0 0.0
2017-Dec-11 02:00N 50°24' W 003°31'0 0.0
2017-Dec-11 01:30N 50°24' W 003°31'0 0.0
2017-Dec-11 01:00N 50°24' W 003°31'0 0.0
2017-Dec-11 00:30N 50°24' W 003°31'0 0.0
2017-Dec-11 00:00N 50°24' W 003°31'0 0.0
2017-Dec-10 23:30N 50°24' W 003°31'0 0.0
2017-Dec-10 23:00N 50°24' W 003°31'0 0.0
2017-Dec-10 22:30N 50°24' W 003°31'0 0.2
2017-Dec-10 22:00N 50°24' W 003°31'2 3.2
2017-Dec-10 21:30N 50°24' W 003°28'510.9
2017-Dec-10 21:00N 50°19' W 003°25'510.5
2017-Dec-10 20:30N 50°14' W 003°22'2 4.5
2017-Dec-10 20:00N 50°12' W 003°19'0 0.8
2017-Dec-10 19:30N 50°12' W 003°18'1 1.3
2017-Dec-10 19:00N 50°12' W 003°18'2 3.9
2017-Dec-10 18:30N 50°13' W 003°21'2 3.1
2017-Dec-10 18:00N 50°13' W 003°18'2 1.3
2017-Dec-10 16:35N 50°13' W 003°21'0 4.2
2017-Dec-10 16:28N 50°13' W 003°21'2 3.3
2017-Dec-10 16:00N 50°11' W 003°20'2 3.2
2017-Dec-10 15:27N 50°10' W 003°22'1 1.3
2017-Dec-10 15:00N 50°10' W 003°23'2 4.0
2017-Dec-10 14:29N 50°08' W 003°22'2 3.6
2017-Dec-10 14:00N 50°06' W 003°22'1 2.1
2017-Dec-10 13:30N 50°05' W 003°23'2 3.7
2017-Dec-10 12:59N 50°04' W 003°24'2 4.7
2017-Dec-10 12:29N 50°01' W 003°24'3 3.7
2017-Dec-10 11:33N 49°58' W 003°25'0 2.7
2017-Dec-10 11:29N 49°58' W 003°25'2 2.5
2017-Dec-10 10:51N 49°56' W 003°24'2 1.3
2017-Dec-10 09:26N 49°54' W 003°23'1 1.4
2017-Dec-10 08:39N 49°54' W 003°21'0 1.6
2017-Dec-10 08:30N 49°54' W 003°21'1 2.3
2017-Dec-10 08:00N 49°53' W 003°22'2 2.2
2017-Dec-10 07:13N 49°55' W 003°23'2 4.5
2017-Dec-10 06:49N 49°56' W 003°22'1 4.5
2017-Dec-10 06:30N 49°57' W 003°21'2 4.5
2017-Dec-10 06:00N 49°59' W 003°19'0 0.7
2017-Dec-10 05:30N 49°60' W 003°19'2 3.3
2017-Dec-10 05:00N 50°01' W 003°19'2 4.2
2017-Dec-10 04:30N 50°03' W 003°18'2 3.8
2017-Dec-10 04:00N 50°05' W 003°17'1 2.7
2017-Dec-10 03:30N 50°04' W 003°17'4 4.0
2017-Dec-10 02:29N 49°60' W 003°18'2 4.0
2017-Dec-10 01:59N 49°58' W 003°19'2 3.8
2017-Dec-10 01:22N 49°56' W 003°20'2 4.4
2017-Dec-10 01:00N 49°54' W 003°22'11 0.7
2017-Dec-09 08:10N 50°04' W 003°12'2 4.3
2017-Dec-09 07:43N 50°06' W 003°12'1 4.3
2017-Dec-09 07:30N 50°06' W 003°11'2 4.5
2017-Dec-09 07:00N 50°08' W 003°09'2 3.9
2017-Dec-09 06:30N 50°09' W 003°07'2 4.6
2017-Dec-09 06:00N 50°11' W 003°05'2 4.7
2017-Dec-09 05:30N 50°13' W 003°03'2 4.8
2017-Dec-09 05:00N 50°15' W 003°00'2 4.3
2017-Dec-09 04:28N 50°17' W 002°58'2 4.3
2017-Dec-09 04:00N 50°18' W 002°56'2 4.3
2017-Dec-09 03:28N 50°20' W 002°53'2 4.4
2017-Dec-09 03:00N 50°22' W 002°51'2 4.0
2017-Dec-09 02:29N 50°23' W 002°49'4 6.9
2017-Dec-09 01:58N 50°24' W 002°44'2 3.4
2017-Dec-09 01:30N 50°26' W 002°45'2 4.5
2017-Dec-09 00:59N 50°28' W 002°46'0 0.5
2017-Dec-09 00:30N 50°28' W 002°46'2 4.4
2017-Dec-09 00:00N 50°30' W 002°44'1 2.2
2017-Dec-08 23:30N 50°29' W 002°45'1 1.4
2017-Dec-08 22:57N 50°29' W 002°44'1 1.7
2017-Dec-08 22:28N 50°29' W 002°45'1 2.5
2017-Dec-08 22:00N 50°30' W 002°47'0 0.3
2017-Dec-08 21:30N 50°30' W 002°47'2 3.0
2017-Dec-08 21:00N 50°28' W 002°46'1 2.0
2017-Dec-08 20:30N 50°27' W 002°46'2 4.0
2017-Dec-08 20:00N 50°25' W 002°45'3 4.2
2017-Dec-08 19:20N 50°28' W 002°46'1 3.0
2017-Dec-08 19:00N 50°29' W 002°46'2 3.5
2017-Dec-08 18:30N 50°27' W 002°46'2 4.4
2017-Dec-08 18:00N 50°25' W 002°45'2 3.0
2017-Dec-08 17:30N 50°27' W 002°46'1 2.8
2017-Dec-08 17:00N 50°28' W 002°46'0 0.8
2017-Dec-08 16:30N 50°28' W 002°46'2 4.4
2017-Dec-08 16:00N 50°26' W 002°46'1 2.0
2017-Dec-08 15:30N 50°25' W 002°45'2 4.4
2017-Dec-08 15:00N 50°27' W 002°46'0 0.9
2017-Dec-08 14:30N 50°27' W 002°46'1 2.9
2017-Dec-08 14:00N 50°26' W 002°44'1 2.5
2017-Dec-08 13:28N 50°27' W 002°45'1 1.2
2017-Dec-08 13:00N 50°27' W 002°46'2 3.3
2017-Dec-08 12:30N 50°26' W 002°44'2 3.1
2017-Dec-08 12:00N 50°27' W 002°46'1 2.7
2017-Dec-08 11:29N 50°26' W 002°44'2 4.3
2017-Dec-08 10:59N 50°28' W 002°46'2 4.3
2017-Dec-08 10:30N 50°30' W 002°47'2 3.5
2017-Dec-08 10:00N 50°30' W 002°50'1 2.4
2017-Dec-08 09:30N 50°31' W 002°51'2 4.2
2017-Dec-08 09:00N 50°30' W 002°48'2 4.2
2017-Dec-08 08:28N 50°29' W 002°46'1 1.4
2017-Dec-08 08:00N 50°29' W 002°47'2 3.9
2017-Dec-08 07:30N 50°27' W 002°46'0 0.7
2017-Dec-08 07:00N 50°27' W 002°45'2 3.8
2017-Dec-08 06:30N 50°28' W 002°46'0 0.7
2017-Dec-08 06:00N 50°28' W 002°46'2 4.3
2017-Dec-08 05:30N 50°26' W 002°45'2 3.2
2017-Dec-08 05:00N 50°28' W 002°46'2 3.1
2017-Dec-08 04:30N 50°29' W 002°47'2 4.1
2017-Dec-08 03:58N 50°27' W 002°45'  
Track history (hours):
 
Tides and Currents Weather Stations Pressure Air Temp Water Temp Dewpoint Dewpoint Depression Visibility Wind Speed Wind Dir Waves Ship Positions

MFV Chloe Olivia

Last reported at 2017-Dec-18 03:35 UTC. Time now 2017-Dec-18 05:00 UTC.
Position N 49°46' W 004°25'.

Length 20 m; draft 3 m.

Type: Fishing. MMSI: 232004700.

Date/timePositionNaut miles runAvg speedWind from/ knotsBaromVisibWave heightAir tempDewpointWater temp
2017-Dec-18 03:35N 49°46' W 004°25'3 4.2
2017-Dec-18 02:49N 49°45' W 004°30'2 4.3
2017-Dec-18 02:20N 49°45' W 004°33'2 4.1
2017-Dec-18 01:57N 49°45' W 004°35'3 1.7
2017-Dec-18 00:23N 49°43' W 004°39'48 1.7
2017-Dec-16 20:56N 49°55' W 003°27'1 0.9
2017-Dec-16 19:44N 49°54' W 003°27'6 0.6
2017-Dec-16 09:45N 49°56' W 003°36'1 2.3
2017-Dec-16 09:27N 49°57' W 003°35'10 0.5
2017-Dec-15 11:49N 50°07' W 003°35'310.3
2017-Dec-15 11:30N 50°10' W 003°33'610.5
2017-Dec-15 10:57N 50°15' W 003°31'510.3
2017-Dec-15 10:30N 50°20' W 003°29'5 9.0
2017-Dec-15 10:00N 50°24' W 003°29'1 1.7
2017-Dec-15 09:30N 50°24' W 003°31'0 0.0
2017-Dec-15 09:00N 50°24' W 003°31'0 0.0
2017-Dec-15 08:31N 50°24' W 003°31'0 0.0
2017-Dec-15 08:00N 50°24' W 003°31'0 0.0
2017-Dec-15 07:30N 50°24' W 003°31'0 0.0
2017-Dec-15 07:00N 50°24' W 003°31'0 0.0
2017-Dec-15 06:30N 50°24' W 003°31'0 0.0
2017-Dec-15 06:01N 50°24' W 003°31'0 0.0
2017-Dec-15 05:30N 50°24' W 003°31'0 0.0
2017-Dec-15 05:00N 50°24' W 003°31'0 0.0
2017-Dec-15 04:31N 50°24' W 003°31'0 0.0
2017-Dec-15 04:00N 50°24' W 003°31'0 0.0
2017-Dec-15 02:30N 50°24' W 003°31'0 0.0
2017-Dec-15 01:00N 50°24' W 003°31'0 0.0
2017-Dec-15 00:30N 50°24' W 003°31'0 0.0
2017-Dec-14 18:30N 50°24' W 003°31'0 0.0
2017-Dec-14 18:00N 50°24' W 003°31'0 0.0
2017-Dec-14 17:30N 50°24' W 003°31'0 0.0
2017-Dec-14 17:00N 50°24' W 003°31'0 0.0
2017-Dec-14 16:31N 50°24' W 003°31'0 0.0
2017-Dec-14 16:00N 50°24' W 003°31'0 0.0
2017-Dec-14 15:00N 50°24' W 003°31'0 0.0
2017-Dec-14 14:30N 50°24' W 003°31'0 0.0
2017-Dec-14 14:00N 50°24' W 003°31'0 0.0
2017-Dec-14 13:30N 50°24' W 003°31'0 0.0
2017-Dec-14 13:00N 50°24' W 003°31'0 0.0
2017-Dec-14 12:31N 50°24' W 003°31'0 0.1
2017-Dec-14 12:00N 50°24' W 003°31'0 0.0
2017-Dec-14 11:30N 50°24' W 003°31'0 0.0
2017-Dec-14 11:00N 50°24' W 003°31'0 0.0
2017-Dec-14 10:30N 50°24' W 003°31'0 0.0
2017-Dec-14 10:00N 50°24' W 003°31'1 1.4
2017-Dec-14 09:30N 50°25' W 003°30'2 4.4
2017-Dec-14 09:00N 50°25' W 003°27'3 6.7
2017-Dec-14 08:30N 50°25' W 003°22'3 6.0
2017-Dec-14 08:00N 50°26' W 003°17'3 5.3
2017-Dec-14 07:30N 50°26' W 003°13'2 4.9
2017-Dec-14 07:00N 50°27' W 003°09'1 1.8
2017-Dec-14 06:30N 50°26' W 003°10'2 3.4
2017-Dec-14 06:00N 50°28' W 003°08'2 3.1
2017-Dec-14 05:28N 50°28' W 003°06'2 3.8
2017-Dec-14 05:00N 50°27' W 003°08'2 4.0
2017-Dec-14 04:30N 50°25' W 003°09'1 2.1
2017-Dec-14 04:00N 50°25' W 003°10'0 0.9
2017-Dec-14 03:30N 50°24' W 003°10'2 4.0
2017-Dec-14 03:00N 50°22' W 003°10'2 4.2
2017-Dec-14 02:30N 50°20' W 003°10'2 4.3
2017-Dec-14 02:00N 50°18' W 003°12'2 3.6
2017-Dec-14 01:30N 50°17' W 003°14'1 1.3
2017-Dec-14 01:00N 50°16' W 003°14'2 3.9
2017-Dec-14 00:30N 50°18' W 003°13'2 3.9
2017-Dec-14 00:00N 50°16' W 003°14'2 3.1
2017-Dec-13 23:30N 50°15' W 003°15'0 1.0
2017-Dec-13 23:00N 50°15' W 003°14'2 4.4
2017-Dec-13 22:30N 50°17' W 003°12'2 4.2
2017-Dec-13 22:00N 50°18' W 003°09'1 1.3
2017-Dec-13 21:31N 50°18' W 003°08'2 3.7
2017-Dec-13 21:00N 50°18' W 003°05'3 4.4
2017-Dec-13 20:23N 50°17' W 003°01'1 3.9
2017-Dec-13 20:00N 50°16' W 002°59'1 1.9
2017-Dec-13 19:30N 50°16' W 002°58'2 3.3
2017-Dec-13 19:00N 50°14' W 002°57'1 2.4
2017-Dec-13 18:30N 50°13' W 002°56'2 3.9
2017-Dec-13 18:00N 50°15' W 002°57'1 2.4
2017-Dec-13 17:27N 50°15' W 002°59'2 3.4
2017-Dec-13 16:44N 50°13' W 003°01'1 4.2
2017-Dec-13 16:30N 50°13' W 003°02'2 4.2
2017-Dec-13 16:00N 50°11' W 003°04'2 3.9
2017-Dec-13 15:30N 50°09' W 003°06'2 4.0
2017-Dec-13 15:01N 50°08' W 003°07'2 4.1
2017-Dec-13 14:30N 50°06' W 003°09'2 4.2
2017-Dec-13 14:00N 50°04' W 003°11'3 3.8
2017-Dec-13 13:16N 50°03' W 003°15'1 4.1
2017-Dec-13 13:00N 50°02' W 003°16'2 3.5
2017-Dec-13 12:26N 50°00' W 003°16'2 4.0
2017-Dec-13 12:00N 49°59' W 003°14'2 2.2
2017-Dec-13 11:00N 49°60' W 003°11'3 4.3
2017-Dec-13 10:12N 50°02' W 003°07'1 4.5
2017-Dec-13 10:00N 50°03' W 003°06'1 2.2
2017-Dec-13 09:30N 50°04' W 003°06'2 3.3
2017-Dec-13 08:57N 50°06' W 003°05'2 4.4
2017-Dec-13 08:30N 50°08' W 003°05'2 4.1
2017-Dec-13 08:00N 50°10' W 003°03'1 1.6
2017-Dec-13 07:30N 50°10' W 003°02'2 4.0
2017-Dec-13 07:00N 50°09' W 003°05'2 3.6
2017-Dec-13 06:30N 50°08' W 003°06'2 4.0
2017-Dec-13 06:00N 50°06' W 003°07'2 3.6
2017-Dec-13 05:30N 50°05' W 003°09'2 4.3
2017-Dec-13 05:00N 50°03' W 003°12'3 3.7
2017-Dec-13 04:03N 49°60' W 003°13'0 4.4
2017-Dec-13 04:00N 49°60' W 003°13'3 3.7
2017-Dec-13 03:04N 49°57' W 003°16'0 4.7
2017-Dec-13 02:59N 49°57' W 003°17'3 3.6
2017-Dec-13 02:11N 49°54' W 003°18'1 4.3
2017-Dec-13 01:57N 49°54' W 003°19'2 3.7
2017-Dec-13 01:29N 49°54' W 003°22'2 3.0
2017-Dec-13 00:58N 49°56' W 003°22'2 4.0
2017-Dec-13 00:26N 49°58' W 003°20'2 3.9
2017-Dec-13 00:00N 49°59' W 003°19'1 2.2
2017-Dec-12 23:30N 49°60' W 003°18'2 3.7
2017-Dec-12 22:54N 50°02' W 003°17'1 3.5
2017-Dec-12 22:30N 50°02' W 003°15'2 4.4
2017-Dec-12 22:00N 50°03' W 003°12'1 1.6
2017-Dec-12 21:30N 50°03' W 003°11'2 3.1
2017-Dec-12 21:01N 50°04' W 003°08'2 4.4
2017-Dec-12 20:31N 50°06' W 003°06'2 4.2
2017-Dec-12 20:00N 50°07' W 003°04'1 2.3
2017-Dec-12 19:30N 50°08' W 003°03'2 3.3
2017-Dec-12 19:01N 50°09' W 003°01'2 3.7
2017-Dec-12 18:30N 50°09' W 002°58'2 3.4
2017-Dec-12 18:01N 50°10' W 002°56'1 1.6
2017-Dec-12 17:30N 50°11' W 002°55'1 1.8
2017-Dec-12 16:59N 50°12' W 002°54'2 4.3
2017-Dec-12 16:29N 50°10' W 002°57'2 4.5
2017-Dec-12 16:00N 50°09' W 002°60'2 4.1
2017-Dec-12 15:28N 50°08' W 003°03'2 4.4
2017-Dec-12 15:00N 50°07' W 003°05'2 4.5
2017-Dec-12 14:31N 50°06' W 003°08'5 4.2
2017-Dec-12 13:25N 50°02' W 003°12'2 4.6
2017-Dec-12 12:59N 50°00' W 003°14'4 4.2
2017-Dec-12 12:08N 49°57' W 003°17'1 3.9
2017-Dec-12 12:00N 49°57' W 003°17'1 1.2
2017-Dec-12 11:30N 49°57' W 003°18'3 4.0
2017-Dec-12 10:46N 49°60' W 003°16'1 4.0
2017-Dec-12 10:30N 50°00' W 003°15'2 4.3
2017-Dec-12 09:56N 50°03' W 003°13'2 4.3
2017-Dec-12 09:29N 50°04' W 003°11'2 3.7
2017-Dec-12 09:00N 50°06' W 003°10'2 4.2
2017-Dec-12 08:30N 50°07' W 003°07'2 4.3
2017-Dec-12 07:58N 50°08' W 003°04'2 4.4
2017-Dec-12 07:30N 50°08' W 003°01'2 3.8
2017-Dec-12 06:56N 50°09' W 002°58'1 2.1
2017-Dec-12 06:30N 50°10' W 002°58'2 3.6
2017-Dec-12 05:56N 50°09' W 003°01'2 4.0
2017-Dec-12 05:30N 50°08' W 003°03'2 3.4
2017-Dec-12 05:00N 50°07' W 003°05'2 4.1
2017-Dec-12 04:31N 50°06' W 003°08'2 4.3
2017-Dec-12 04:00N 50°05' W 003°11'2 4.3
2017-Dec-12 03:30N 50°04' W 003°13'2 3.7
2017-Dec-12 03:00N 50°02' W 003°15'3 4.0
2017-Dec-12 02:14N 49°59' W 003°17'1 4.2
2017-Dec-12 01:59N 49°58' W 003°18'2 4.0
2017-Dec-12 01:30N 49°57' W 003°19'2 4.1
2017-Dec-12 00:55N 49°54' W 003°21'1 2.8
2017-Dec-12 00:26N 49°53' W 003°22'1 1.4
2017-Dec-11 23:26N 49°55' W 003°23'2 4.0
2017-Dec-11 22:59N 49°56' W 003°22'4 3.4
2017-Dec-11 21:56N 50°00' W 003°22'2 4.2
2017-Dec-11 21:28N 50°02' W 003°21'2 4.3
2017-Dec-11 20:58N 50°04' W 003°20'2 4.4
2017-Dec-11 20:28N 50°06' W 003°19'1 3.1
2017-Dec-11 20:00N 50°07' W 003°19'5 9.0
2017-Dec-11 19:30N 50°12' W 003°21'5 9.9
2017-Dec-11 19:00N 50°16' W 003°24'5 9.9
2017-Dec-11 18:31N 50°21' W 003°26'4 8.4
2017-Dec-11 18:00N 50°24' W 003°30'1 1.2
2017-Dec-11 17:30N 50°24' W 003°31'0 0.0
2017-Dec-11 17:00N 50°24' W 003°31'0 0.0
2017-Dec-11 16:30N 50°24' W 003°31'0 0.0
2017-Dec-11 16:00N 50°24' W 003°31'0 0.0
2017-Dec-11 15:30N 50°24' W 003°31'0 0.0
2017-Dec-11 15:00N 50°24' W 003°31'0 0.0
2017-Dec-11 14:30N 50°24' W 003°31'0 0.0
2017-Dec-11 14:00N 50°24' W 003°31'0 0.0
2017-Dec-11 13:30N 50°24' W 003°31'0 0.0
2017-Dec-11 13:01N 50°24' W 003°31'0 0.0
2017-Dec-11 12:30N 50°24' W 003°31'0 0.0
2017-Dec-11 12:00N 50°24' W 003°31'0 0.0
2017-Dec-11 11:30N 50°24' W 003°31'0 0.0
2017-Dec-11 11:00N 50°24' W 003°31'0 0.0
2017-Dec-11 10:30N 50°24' W 003°31'0 0.0
2017-Dec-11 10:00N 50°24' W 003°31'0 0.0
2017-Dec-11 09:31N 50°24' W 003°31'0 0.0
2017-Dec-11 09:00N 50°24' W 003°31'0 0.0
2017-Dec-11 08:30N 50°24' W 003°31'0 0.0
2017-Dec-11 08:00N 50°24' W 003°31'0 0.0
2017-Dec-11 07:30N 50°24' W 003°31'0 0.0
2017-Dec-11 07:00N 50°24' W 003°31'0 0.0
2017-Dec-11 06:30N 50°24' W 003°31'0 0.0
2017-Dec-11 06:00N 50°24' W 003°31'0 0.0
2017-Dec-11 05:30N 50°24' W 003°31'0 0.0
2017-Dec-11 05:00N 50°24' W 003°31'0 0.0
2017-Dec-11 04:30N 50°24' W 003°31'0 0.0
2017-Dec-11 04:00N 50°24' W 003°31'0 0.0
2017-Dec-11 03:30N 50°24' W 003°31'0 0.0
2017-Dec-11 03:00N 50°24' W 003°31'0 0.0
2017-Dec-11 02:30N 50°24' W 003°31'0 0.0
2017-Dec-11 02:00N 50°24' W 003°31'0 0.0
2017-Dec-11 01:30N 50°24' W 003°31'0 0.0
2017-Dec-11 01:00N 50°24' W 003°31'0 0.0
2017-Dec-11 00:30N 50°24' W 003°31'0 0.0
2017-Dec-11 00:00N 50°24' W 003°31'0 0.0
2017-Dec-10 23:30N 50°24' W 003°31'0 0.0
2017-Dec-10 23:00N 50°24' W 003°31'0 0.0
2017-Dec-10 22:30N 50°24' W 003°31'0 0.2
2017-Dec-10 22:00N 50°24' W 003°31'2 3.2
2017-Dec-10 21:30N 50°24' W 003°28'510.9
2017-Dec-10 21:00N 50°19' W 003°25'510.5
2017-Dec-10 20:30N 50°14' W 003°22'2 4.5
2017-Dec-10 20:00N 50°12' W 003°19'0 0.8
2017-Dec-10 19:30N 50°12' W 003°18'1 1.3
2017-Dec-10 19:00N 50°12' W 003°18'2 3.9
2017-Dec-10 18:30N 50°13' W 003°21'2 3.1
2017-Dec-10 18:00N 50°13' W 003°18'2 1.3
2017-Dec-10 16:35N 50°13' W 003°21'0 4.2
2017-Dec-10 16:28N 50°13' W 003°21'2 3.3
2017-Dec-10 16:00N 50°11' W 003°20'2 3.2
2017-Dec-10 15:27N 50°10' W 003°22'1 1.3
2017-Dec-10 15:00N 50°10' W 003°23'2 4.0
2017-Dec-10 14:29N 50°08' W 003°22'2 3.6
2017-Dec-10 14:00N 50°06' W 003°22'1 2.1
2017-Dec-10 13:30N 50°05' W 003°23'2 3.7
2017-Dec-10 12:59N 50°04' W 003°24'2 4.7
2017-Dec-10 12:29N 50°01' W 003°24'3 3.7
2017-Dec-10 11:33N 49°58' W 003°25'0 2.7
2017-Dec-10 11:29N 49°58' W 003°25'2 2.5
2017-Dec-10 10:51N 49°56' W 003°24'2 1.3
2017-Dec-10 09:26N 49°54' W 003°23'1 1.4
2017-Dec-10 08:39N 49°54' W 003°21'0 1.6
2017-Dec-10 08:30N 49°54' W 003°21'1 2.3
2017-Dec-10 08:00N 49°53' W 003°22'2 2.2
2017-Dec-10 07:13N 49°55' W 003°23'2 4.5
2017-Dec-10 06:49N 49°56' W 003°22'1 4.5
2017-Dec-10 06:30N 49°57' W 003°21'2 4.5
2017-Dec-10 06:00N 49°59' W 003°19'0 0.7
2017-Dec-10 05:30N 49°60' W 003°19'2 3.3
2017-Dec-10 05:00N 50°01' W 003°19'2 4.2
2017-Dec-10 04:30N 50°03' W 003°18'2 3.8
2017-Dec-10 04:00N 50°05' W 003°17'1 2.7
2017-Dec-10 03:30N 50°04' W 003°17'4 4.0
2017-Dec-10 02:29N 49°60' W 003°18'2 4.0
2017-Dec-10 01:59N 49°58' W 003°19'2 3.8
2017-Dec-10 01:22N 49°56' W 003°20'2 4.4
2017-Dec-10 01:00N 49°54' W 003°22'11 0.7
2017-Dec-09 08:10N 50°04' W 003°12'2 4.3
2017-Dec-09 07:43N 50°06' W 003°12'1 4.3
2017-Dec-09 07:30N 50°06' W 003°11'2 4.5
2017-Dec-09 07:00N 50°08' W 003°09'2 3.9
2017-Dec-09 06:30N 50°09' W 003°07'2 4.6
2017-Dec-09 06:00N 50°11' W 003°05'2 4.7
2017-Dec-09 05:30N 50°13' W 003°03'2 4.8
2017-Dec-09 05:00N 50°15' W 003°00'2 4.3
2017-Dec-09 04:28N 50°17' W 002°58'2 4.3
2017-Dec-09 04:00N 50°18' W 002°56'2 4.3
2017-Dec-09 03:28N 50°20' W 002°53'2 4.4
2017-Dec-09 03:00N 50°22' W 002°51'2 4.0
2017-Dec-09 02:29N 50°23' W 002°49'4 6.9
2017-Dec-09 01:58N 50°24' W 002°44'2 3.4
2017-Dec-09 01:30N 50°26' W 002°45'2 4.5
2017-Dec-09 00:59N 50°28' W 002°46'0 0.5
2017-Dec-09 00:30N 50°28' W 002°46'2 4.4
2017-Dec-09 00:00N 50°30' W 002°44'1 2.2
2017-Dec-08 23:30N 50°29' W 002°45'1 1.4
2017-Dec-08 22:57N 50°29' W 002°44'1 1.7
2017-Dec-08 22:28N 50°29' W 002°45'1 2.5
2017-Dec-08 22:00N 50°30' W 002°47'0 0.3
2017-Dec-08 21:30N 50°30' W 002°47'2 3.0
2017-Dec-08 21:00N 50°28' W 002°46'1 2.0
2017-Dec-08 20:30N 50°27' W 002°46'2 4.0
2017-Dec-08 20:00N 50°25' W 002°45'3 4.2
2017-Dec-08 19:20N 50°28' W 002°46'1 3.0
2017-Dec-08 19:00N 50°29' W 002°46'2 3.5
2017-Dec-08 18:30N 50°27' W 002°46'2 4.4
2017-Dec-08 18:00N 50°25' W 002°45'2 3.0
2017-Dec-08 17:30N 50°27' W 002°46'1 2.8
2017-Dec-08 17:00N 50°28' W 002°46'0 0.8
2017-Dec-08 16:30N 50°28' W 002°46'2 4.4
2017-Dec-08 16:00N 50°26' W 002°46'1 2.0
2017-Dec-08 15:30N 50°25' W 002°45'2 4.4
2017-Dec-08 15:00N 50°27' W 002°46'0 0.9
2017-Dec-08 14:30N 50°27' W 002°46'1 2.9
2017-Dec-08 14:00N 50°26' W 002°44'1 2.5
2017-Dec-08 13:28N 50°27' W 002°45'1 1.2
2017-Dec-08 13:00N 50°27' W 002°46'2 3.3
2017-Dec-08 12:30N 50°26' W 002°44'2 3.1
2017-Dec-08 12:00N 50°27' W 002°46'1 2.7
2017-Dec-08 11:29N 50°26' W 002°44'2 4.3
2017-Dec-08 10:59N 50°28' W 002°46'2 4.3
2017-Dec-08 10:30N 50°30' W 002°47'2 3.5
2017-Dec-08 10:00N 50°30' W 002°50'1 2.4
2017-Dec-08 09:30N 50°31' W 002°51'2 4.2
2017-Dec-08 09:00N 50°30' W 002°48'2 4.2
2017-Dec-08 08:28N 50°29' W 002°46'1 1.4
2017-Dec-08 08:00N 50°29' W 002°47'2 3.9
2017-Dec-08 07:30N 50°27' W 002°46'0 0.7
2017-Dec-08 07:00N 50°27' W 002°45'2 3.8
2017-Dec-08 06:30N 50°28' W 002°46'0 0.7
2017-Dec-08 06:00N 50°28' W 002°46'2 4.3
2017-Dec-08 05:30N 50°26' W 002°45'2 3.2
2017-Dec-08 05:00N 50°28' W 002°46'2 3.1
2017-Dec-08 04:30N 50°29' W 002°47'2 4.1
2017-Dec-08 03:58N 50°27' W 002°45'  

Dump ship's entire track history